sensor_id;sensor_type;location;lat;lon;timestamp;P1;durP1;ratioP1;P2;durP2;ratioP2
3849;SDS011;1940;51.052;13.678;2023-03-14T00:00:46;2.90;;;1.27;;
3849;SDS011;1940;51.052;13.678;2023-03-14T00:03:12;1.70;;;1.40;;
3849;SDS011;1940;51.052;13.678;2023-03-14T00:05:37;1.70;;;1.33;;
3849;SDS011;1940;51.052;13.678;2023-03-14T00:08:03;1.87;;;1.50;;
3849;SDS011;1940;51.052;13.678;2023-03-14T00:10:28;1.90;;;1.37;;
3849;SDS011;1940;51.052;13.678;2023-03-14T00:12:54;3.80;;;1.40;;
3849;SDS011;1940;51.052;13.678;2023-03-14T00:15:19;1.93;;;1.50;;
3849;SDS011;1940;51.052;13.678;2023-03-14T00:17:45;3.33;;;1.63;;
3849;SDS011;1940;51.052;13.678;2023-03-14T00:20:10;2.20;;;1.53;;
3849;SDS011;1940;51.052;13.678;2023-03-14T00:22:37;2.73;;;1.77;;
3849;SDS011;1940;51.052;13.678;2023-03-14T00:25:04;2.70;;;1.93;;
3849;SDS011;1940;51.052;13.678;2023-03-14T00:27:30;11.03;;;2.40;;
3849;SDS011;1940;51.052;13.678;2023-03-14T00:29:56;2.67;;;1.77;;
3849;SDS011;1940;51.052;13.678;2023-03-14T00:32:22;3.43;;;1.97;;
3849;SDS011;1940;51.052;13.678;2023-03-14T00:34:48;2.57;;;2.00;;
3849;SDS011;1940;51.052;13.678;2023-03-14T00:37:14;3.27;;;2.17;;
3849;SDS011;1940;51.052;13.678;2023-03-14T00:39:39;2.37;;;1.80;;
3849;SDS011;1940;51.052;13.678;2023-03-14T00:42:05;3.67;;;2.10;;
3849;SDS011;1940;51.052;13.678;2023-03-14T00:44:30;3.30;;;2.10;;
3849;SDS011;1940;51.052;13.678;2023-03-14T00:46:56;2.53;;;1.97;;
3849;SDS011;1940;51.052;13.678;2023-03-14T00:49:22;5.80;;;2.30;;
3849;SDS011;1940;51.052;13.678;2023-03-14T00:51:48;4.27;;;2.40;;
3849;SDS011;1940;51.052;13.678;2023-03-14T00:54:13;3.63;;;2.33;;
3849;SDS011;1940;51.052;13.678;2023-03-14T00:56:39;3.03;;;1.80;;
3849;SDS011;1940;51.052;13.678;2023-03-14T00:59:04;2.70;;;2.17;;
3849;SDS011;1940;51.052;13.678;2023-03-14T01:01:30;4.77;;;2.40;;
3849;SDS011;1940;51.052;13.678;2023-03-14T01:03:55;3.37;;;2.03;;
3849;SDS011;1940;51.052;13.678;2023-03-14T01:06:22;3.00;;;2.20;;
3849;SDS011;1940;51.052;13.678;2023-03-14T01:08:49;3.07;;;2.30;;
3849;SDS011;1940;51.052;13.678;2023-03-14T01:11:20;5.70;;;2.00;;
3849;SDS011;1940;51.052;13.678;2023-03-14T01:13:47;5.80;;;2.10;;
3849;SDS011;1940;51.052;13.678;2023-03-14T01:16:13;2.20;;;1.77;;
3849;SDS011;1940;51.052;13.678;2023-03-14T01:18:39;1.90;;;1.60;;
3849;SDS011;1940;51.052;13.678;2023-03-14T01:21:10;3.63;;;1.70;;
3849;SDS011;1940;51.052;13.678;2023-03-14T01:23:40;2.30;;;1.83;;
3849;SDS011;1940;51.052;13.678;2023-03-14T01:26:10;2.97;;;1.80;;
3849;SDS011;1940;51.052;13.678;2023-03-14T01:28:36;2.20;;;1.80;;
3849;SDS011;1940;51.052;13.678;2023-03-14T01:31:03;1.80;;;1.50;;
3849;SDS011;1940;51.052;13.678;2023-03-14T01:33:29;1.87;;;1.67;;
3849;SDS011;1940;51.052;13.678;2023-03-14T01:35:55;2.77;;;1.80;;
3849;SDS011;1940;51.052;13.678;2023-03-14T01:38:20;2.10;;;1.87;;
3849;SDS011;1940;51.052;13.678;2023-03-14T01:40:46;2.50;;;1.90;;
3849;SDS011;1940;51.052;13.678;2023-03-14T01:43:18;2.50;;;2.00;;
3849;SDS011;1940;51.052;13.678;2023-03-14T01:48:31;3.20;;;2.33;;
3849;SDS011;1940;51.052;13.678;2023-03-14T01:51:00;3.10;;;2.33;;
3849;SDS011;1940;51.052;13.678;2023-03-14T01:53:27;4.33;;;2.40;;
3849;SDS011;1940;51.052;13.678;2023-03-14T01:55:53;2.90;;;2.20;;
3849;SDS011;1940;51.052;13.678;2023-03-14T01:58:24;3.60;;;2.47;;
3849;SDS011;1940;51.052;13.678;2023-03-14T02:00:52;1.97;;;1.63;;
3849;SDS011;1940;51.052;13.678;2023-03-14T02:03:18;2.87;;;2.10;;
3849;SDS011;1940;51.052;13.678;2023-03-14T02:05:47;2.43;;;2.00;;
3849;SDS011;1940;51.052;13.678;2023-03-14T02:08:14;2.60;;;2.20;;
3849;SDS011;1940;51.052;13.678;2023-03-14T02:10:43;2.33;;;1.70;;
3849;SDS011;1940;51.052;13.678;2023-03-14T02:13:10;2.20;;;1.53;;
3849;SDS011;1940;51.052;13.678;2023-03-14T02:15:37;2.30;;;1.70;;
3849;SDS011;1940;51.052;13.678;2023-03-14T02:18:04;3.47;;;1.53;;
3849;SDS011;1940;51.052;13.678;2023-03-14T02:20:33;2.20;;;1.67;;
3849;SDS011;1940;51.052;13.678;2023-03-14T02:22:59;1.93;;;1.50;;
3849;SDS011;1940;51.052;13.678;2023-03-14T02:27:56;2.40;;;1.10;;
3849;SDS011;1940;51.052;13.678;2023-03-14T02:30:23;1.53;;;1.10;;
3849;SDS011;1940;51.052;13.678;2023-03-14T02:32:52;2.40;;;1.57;;
3849;SDS011;1940;51.052;13.678;2023-03-14T02:35:23;2.13;;;1.20;;
3849;SDS011;1940;51.052;13.678;2023-03-14T02:37:52;1.60;;;1.23;;
3849;SDS011;1940;51.052;13.678;2023-03-14T02:40:28;1.10;;;1.00;;
3849;SDS011;1940;51.052;13.678;2023-03-14T02:42:54;1.40;;;0.90;;
3849;SDS011;1940;51.052;13.678;2023-03-14T02:47:49;1.23;;;1.00;;
3849;SDS011;1940;51.052;13.678;2023-03-14T02:50:20;1.73;;;0.80;;
3849;SDS011;1940;51.052;13.678;2023-03-14T02:52:48;0.70;;;0.67;;
3849;SDS011;1940;51.052;13.678;2023-03-14T02:55:14;0.83;;;0.80;;
3849;SDS011;1940;51.052;13.678;2023-03-14T02:57:40;0.90;;;0.80;;
3849;SDS011;1940;51.052;13.678;2023-03-14T03:00:05;1.20;;;0.70;;
3849;SDS011;1940;51.052;13.678;2023-03-14T03:02:32;0.80;;;0.63;;
3849;SDS011;1940;51.052;13.678;2023-03-14T03:04:57;0.80;;;0.63;;
3849;SDS011;1940;51.052;13.678;2023-03-14T03:07:23;0.90;;;0.70;;
3849;SDS011;1940;51.052;13.678;2023-03-14T03:09:49;0.73;;;0.70;;
3849;SDS011;1940;51.052;13.678;2023-03-14T03:12:15;1.10;;;0.80;;
3849;SDS011;1940;51.052;13.678;2023-03-14T03:14:40;1.03;;;0.83;;
3849;SDS011;1940;51.052;13.678;2023-03-14T03:17:06;0.90;;;0.80;;
3849;SDS011;1940;51.052;13.678;2023-03-14T03:19:32;0.80;;;0.70;;
3849;SDS011;1940;51.052;13.678;2023-03-14T03:21:58;1.00;;;0.70;;
3849;SDS011;1940;51.052;13.678;2023-03-14T03:24:24;2.80;;;0.80;;
3849;SDS011;1940;51.052;13.678;2023-03-14T03:26:51;1.03;;;0.77;;
3849;SDS011;1940;51.052;13.678;2023-03-14T03:29:16;0.80;;;0.70;;
3849;SDS011;1940;51.052;13.678;2023-03-14T03:31:42;3.00;;;0.80;;
3849;SDS011;1940;51.052;13.678;2023-03-14T03:34:10;1.10;;;0.70;;
3849;SDS011;1940;51.052;13.678;2023-03-14T03:36:36;1.00;;;0.80;;
3849;SDS011;1940;51.052;13.678;2023-03-14T03:39:01;1.20;;;0.80;;
3849;SDS011;1940;51.052;13.678;2023-03-14T03:41:27;0.80;;;0.60;;
3849;SDS011;1940;51.052;13.678;2023-03-14T03:43:52;0.70;;;0.60;;
3849;SDS011;1940;51.052;13.678;2023-03-14T03:46:19;0.80;;;0.80;;
3849;SDS011;1940;51.052;13.678;2023-03-14T03:48:44;0.80;;;0.70;;
3849;SDS011;1940;51.052;13.678;2023-03-14T03:51:11;0.70;;;0.60;;
3849;SDS011;1940;51.052;13.678;2023-03-14T03:53:41;1.17;;;0.70;;
3849;SDS011;1940;51.052;13.678;2023-03-14T03:56:07;0.80;;;0.60;;
3849;SDS011;1940;51.052;13.678;2023-03-14T03:58:33;1.07;;;0.70;;
3849;SDS011;1940;51.052;13.678;2023-03-14T04:00:59;1.20;;;0.80;;
3849;SDS011;1940;51.052;13.678;2023-03-14T04:03:24;0.83;;;0.60;;
3849;SDS011;1940;51.052;13.678;2023-03-14T04:06:00;1.47;;;0.60;;
3849;SDS011;1940;51.052;13.678;2023-03-14T04:08:27;1.40;;;0.80;;
3849;SDS011;1940;51.052;13.678;2023-03-14T04:10:54;0.80;;;0.60;;
3849;SDS011;1940;51.052;13.678;2023-03-14T04:13:20;1.30;;;0.70;;
3849;SDS011;1940;51.052;13.678;2023-03-14T04:15:46;0.80;;;0.60;;
3849;SDS011;1940;51.052;13.678;2023-03-14T04:18:11;0.77;;;0.73;;
3849;SDS011;1940;51.052;13.678;2023-03-14T04:20:37;1.27;;;0.90;;
3849;SDS011;1940;51.052;13.678;2023-03-14T04:23:02;0.70;;;0.60;;
3849;SDS011;1940;51.052;13.678;2023-03-14T04:25:27;0.80;;;0.80;;
3849;SDS011;1940;51.052;13.678;2023-03-14T04:27:53;0.70;;;0.60;;
3849;SDS011;1940;51.052;13.678;2023-03-14T04:30:18;1.33;;;0.77;;
3849;SDS011;1940;51.052;13.678;2023-03-14T04:32:44;2.50;;;0.70;;
3849;SDS011;1940;51.052;13.678;2023-03-14T04:35:09;2.83;;;0.90;;
3849;SDS011;1940;51.052;13.678;2023-03-14T04:37:35;0.80;;;0.70;;
3849;SDS011;1940;51.052;13.678;2023-03-14T04:40:00;1.77;;;1.00;;
3849;SDS011;1940;51.052;13.678;2023-03-14T04:42:26;1.10;;;0.90;;
3849;SDS011;1940;51.052;13.678;2023-03-14T04:44:51;1.20;;;0.77;;
3849;SDS011;1940;51.052;13.678;2023-03-14T04:47:17;1.83;;;0.90;;
3849;SDS011;1940;51.052;13.678;2023-03-14T04:49:42;1.73;;;0.80;;
3849;SDS011;1940;51.052;13.678;2023-03-14T04:52:08;3.47;;;1.20;;
3849;SDS011;1940;51.052;13.678;2023-03-14T04:54:33;3.30;;;1.07;;
3849;SDS011;1940;51.052;13.678;2023-03-14T04:56:59;4.00;;;1.00;;
3849;SDS011;1940;51.052;13.678;2023-03-14T04:59:24;2.60;;;1.17;;
3849;SDS011;1940;51.052;13.678;2023-03-14T05:01:50;5.53;;;1.00;;
3849;SDS011;1940;51.052;13.678;2023-03-14T05:04:15;3.53;;;1.03;;
3849;SDS011;1940;51.052;13.678;2023-03-14T05:06:41;2.50;;;1.00;;
3849;SDS011;1940;51.052;13.678;2023-03-14T05:09:07;0.80;;;0.70;;
3849;SDS011;1940;51.052;13.678;2023-03-14T05:11:32;1.80;;;1.00;;
3849;SDS011;1940;51.052;13.678;2023-03-14T05:13:58;2.30;;;1.00;;
3849;SDS011;1940;51.052;13.678;2023-03-14T05:16:24;7.70;;;1.10;;
3849;SDS011;1940;51.052;13.678;2023-03-14T05:18:50;2.80;;;1.10;;
3849;SDS011;1940;51.052;13.678;2023-03-14T05:21:15;3.93;;;1.00;;
3849;SDS011;1940;51.052;13.678;2023-03-14T05:23:41;1.40;;;1.00;;
3849;SDS011;1940;51.052;13.678;2023-03-14T05:26:06;2.80;;;0.90;;
3849;SDS011;1940;51.052;13.678;2023-03-14T05:28:32;5.33;;;1.40;;
3849;SDS011;1940;51.052;13.678;2023-03-14T05:30:57;1.90;;;0.87;;
3849;SDS011;1940;51.052;13.678;2023-03-14T05:33:23;1.87;;;1.30;;
3849;SDS011;1940;51.052;13.678;2023-03-14T05:35:49;2.97;;;1.30;;
3849;SDS011;1940;51.052;13.678;2023-03-14T05:38:15;1.63;;;1.23;;
3849;SDS011;1940;51.052;13.678;2023-03-14T05:40:40;4.03;;;1.40;;
3849;SDS011;1940;51.052;13.678;2023-03-14T05:43:06;4.30;;;1.20;;
3849;SDS011;1940;51.052;13.678;2023-03-14T05:45:33;3.00;;;1.10;;
3849;SDS011;1940;51.052;13.678;2023-03-14T05:48:00;2.60;;;1.20;;
3849;SDS011;1940;51.052;13.678;2023-03-14T05:50:25;4.50;;;1.10;;
3849;SDS011;1940;51.052;13.678;2023-03-14T05:52:51;4.30;;;1.10;;
3849;SDS011;1940;51.052;13.678;2023-03-14T05:55:16;3.03;;;1.10;;
3849;SDS011;1940;51.052;13.678;2023-03-14T05:57:42;1.97;;;1.00;;
3849;SDS011;1940;51.052;13.678;2023-03-14T06:00:07;6.30;;;2.17;;
3849;SDS011;1940;51.052;13.678;2023-03-14T06:02:33;2.20;;;1.17;;
3849;SDS011;1940;51.052;13.678;2023-03-14T06:04:59;1.77;;;1.07;;
3849;SDS011;1940;51.052;13.678;2023-03-14T06:07:24;2.30;;;0.97;;
3849;SDS011;1940;51.052;13.678;2023-03-14T06:09:50;5.37;;;1.40;;
3849;SDS011;1940;51.052;13.678;2023-03-14T06:12:15;3.80;;;1.20;;
3849;SDS011;1940;51.052;13.678;2023-03-14T06:14:42;1.97;;;1.17;;
3849;SDS011;1940;51.052;13.678;2023-03-14T06:17:07;5.53;;;1.33;;
3849;SDS011;1940;51.052;13.678;2023-03-14T06:19:33;5.07;;;1.87;;
3849;SDS011;1940;51.052;13.678;2023-03-14T06:21:58;10.87;;;4.00;;
3849;SDS011;1940;51.052;13.678;2023-03-14T06:24:24;5.90;;;2.03;;
3849;SDS011;1940;51.052;13.678;2023-03-14T06:26:49;5.93;;;3.20;;
3849;SDS011;1940;51.052;13.678;2023-03-14T06:29:15;2.20;;;1.17;;
3849;SDS011;1940;51.052;13.678;2023-03-14T06:31:40;10.33;;;4.90;;
3849;SDS011;1940;51.052;13.678;2023-03-14T06:34:06;7.80;;;3.67;;
3849;SDS011;1940;51.052;13.678;2023-03-14T06:36:31;13.40;;;6.30;;
3849;SDS011;1940;51.052;13.678;2023-03-14T06:38:57;7.00;;;3.87;;
3849;SDS011;1940;51.052;13.678;2023-03-14T06:41:22;7.63;;;3.23;;
3849;SDS011;1940;51.052;13.678;2023-03-14T06:43:50;4.57;;;1.37;;
3849;SDS011;1940;51.052;13.678;2023-03-14T06:46:16;2.10;;;1.03;;
3849;SDS011;1940;51.052;13.678;2023-03-14T06:48:41;5.40;;;1.17;;
3849;SDS011;1940;51.052;13.678;2023-03-14T06:51:07;2.80;;;1.10;;
3849;SDS011;1940;51.052;13.678;2023-03-14T06:53:32;1.97;;;1.20;;
3849;SDS011;1940;51.052;13.678;2023-03-14T06:55:58;4.47;;;1.40;;
3849;SDS011;1940;51.052;13.678;2023-03-14T06:58:23;3.67;;;1.23;;
3849;SDS011;1940;51.052;13.678;2023-03-14T07:00:49;8.17;;;2.10;;
3849;SDS011;1940;51.052;13.678;2023-03-14T07:03:15;3.80;;;1.23;;
3849;SDS011;1940;51.052;13.678;2023-03-14T07:05:40;2.30;;;1.40;;
3849;SDS011;1940;51.052;13.678;2023-03-14T07:08:06;5.13;;;1.37;;
3849;SDS011;1940;51.052;13.678;2023-03-14T07:10:33;2.30;;;1.40;;
3849;SDS011;1940;51.052;13.678;2023-03-14T07:12:59;8.13;;;1.60;;
3849;SDS011;1940;51.052;13.678;2023-03-14T07:15:24;2.90;;;1.50;;
3849;SDS011;1940;51.052;13.678;2023-03-14T07:17:50;4.37;;;1.23;;
3849;SDS011;1940;51.052;13.678;2023-03-14T07:20:15;5.43;;;1.80;;
3849;SDS011;1940;51.052;13.678;2023-03-14T07:22:41;4.67;;;1.80;;
3849;SDS011;1940;51.052;13.678;2023-03-14T07:25:07;4.20;;;1.67;;
3849;SDS011;1940;51.052;13.678;2023-03-14T07:27:34;4.77;;;1.27;;
3849;SDS011;1940;51.052;13.678;2023-03-14T07:29:59;1.67;;;1.20;;
3849;SDS011;1940;51.052;13.678;2023-03-14T07:32:25;2.00;;;1.33;;
3849;SDS011;1940;51.052;13.678;2023-03-14T07:34:50;4.60;;;1.63;;
3849;SDS011;1940;51.052;13.678;2023-03-14T07:37:16;6.00;;;1.10;;
3849;SDS011;1940;51.052;13.678;2023-03-14T07:39:41;3.77;;;1.60;;
3849;SDS011;1940;51.052;13.678;2023-03-14T07:42:07;1.40;;;0.90;;
3849;SDS011;1940;51.052;13.678;2023-03-14T07:44:32;1.93;;;1.20;;
3849;SDS011;1940;51.052;13.678;2023-03-14T07:46:58;4.67;;;1.67;;
3849;SDS011;1940;51.052;13.678;2023-03-14T07:49:23;3.23;;;1.10;;
3849;SDS011;1940;51.052;13.678;2023-03-14T07:51:49;3.80;;;1.63;;
3849;SDS011;1940;51.052;13.678;2023-03-14T07:54:17;6.43;;;1.53;;
3849;SDS011;1940;51.052;13.678;2023-03-14T07:56:43;2.90;;;1.30;;
3849;SDS011;1940;51.052;13.678;2023-03-14T07:59:08;2.50;;;1.33;;
3849;SDS011;1940;51.052;13.678;2023-03-14T08:01:34;2.57;;;1.10;;
3849;SDS011;1940;51.052;13.678;2023-03-14T08:03:59;2.93;;;1.30;;
3849;SDS011;1940;51.052;13.678;2023-03-14T08:06:25;2.40;;;1.00;;
3849;SDS011;1940;51.052;13.678;2023-03-14T08:08:50;1.23;;;0.90;;
3849;SDS011;1940;51.052;13.678;2023-03-14T08:11:16;2.17;;;0.97;;
3849;SDS011;1940;51.052;13.678;2023-03-14T08:13:41;2.53;;;1.37;;
3849;SDS011;1940;51.052;13.678;2023-03-14T08:16:07;2.30;;;1.00;;
3849;SDS011;1940;51.052;13.678;2023-03-14T08:18:33;2.27;;;1.10;;
3849;SDS011;1940;51.052;13.678;2023-03-14T08:20:59;4.30;;;1.20;;
3849;SDS011;1940;51.052;13.678;2023-03-14T08:23:24;2.43;;;1.20;;
3849;SDS011;1940;51.052;13.678;2023-03-14T08:25:50;2.80;;;1.20;;
3849;SDS011;1940;51.052;13.678;2023-03-14T08:28:17;2.60;;;1.10;;
3849;SDS011;1940;51.052;13.678;2023-03-14T08:30:43;3.03;;;1.20;;
3849;SDS011;1940;51.052;13.678;2023-03-14T08:33:08;2.40;;;0.90;;
3849;SDS011;1940;51.052;13.678;2023-03-14T08:35:34;0.97;;;0.87;;
3849;SDS011;1940;51.052;13.678;2023-03-14T08:37:59;4.67;;;1.13;;
3849;SDS011;1940;51.052;13.678;2023-03-14T08:40:26;2.80;;;1.13;;
3849;SDS011;1940;51.052;13.678;2023-03-14T08:42:51;8.03;;;1.03;;
3849;SDS011;1940;51.052;13.678;2023-03-14T08:45:17;3.63;;;1.33;;
3849;SDS011;1940;51.052;13.678;2023-03-14T08:47:43;3.10;;;0.90;;
3849;SDS011;1940;51.052;13.678;2023-03-14T08:50:09;1.80;;;0.90;;
3849;SDS011;1940;51.052;13.678;2023-03-14T08:52:36;1.70;;;1.00;;
3849;SDS011;1940;51.052;13.678;2023-03-14T08:55:03;2.23;;;1.10;;
3849;SDS011;1940;51.052;13.678;2023-03-14T08:57:29;2.17;;;0.90;;
3849;SDS011;1940;51.052;13.678;2023-03-14T08:59:54;1.10;;;0.80;;
3849;SDS011;1940;51.052;13.678;2023-03-14T09:02:21;2.27;;;0.90;;
3849;SDS011;1940;51.052;13.678;2023-03-14T09:04:49;2.83;;;0.97;;
3849;SDS011;1940;51.052;13.678;2023-03-14T09:07:15;1.43;;;0.73;;
3849;SDS011;1940;51.052;13.678;2023-03-14T09:09:40;1.20;;;0.90;;
3849;SDS011;1940;51.052;13.678;2023-03-14T09:12:06;1.30;;;0.83;;
3849;SDS011;1940;51.052;13.678;2023-03-14T09:14:31;1.87;;;0.90;;
3849;SDS011;1940;51.052;13.678;2023-03-14T09:16:57;2.70;;;1.00;;
3849;SDS011;1940;51.052;13.678;2023-03-14T09:19:23;1.70;;;0.90;;
3849;SDS011;1940;51.052;13.678;2023-03-14T09:21:48;3.17;;;1.00;;
3849;SDS011;1940;51.052;13.678;2023-03-14T09:24:14;2.83;;;0.80;;
3849;SDS011;1940;51.052;13.678;2023-03-14T09:26:40;3.30;;;1.10;;
3849;SDS011;1940;51.052;13.678;2023-03-14T09:29:06;2.77;;;1.10;;
3849;SDS011;1940;51.052;13.678;2023-03-14T09:31:31;0.90;;;0.80;;
3849;SDS011;1940;51.052;13.678;2023-03-14T09:33:57;2.97;;;1.07;;
3849;SDS011;1940;51.052;13.678;2023-03-14T09:36:22;2.57;;;0.90;;
3849;SDS011;1940;51.052;13.678;2023-03-14T09:38:48;1.87;;;0.97;;
3849;SDS011;1940;51.052;13.678;2023-03-14T09:41:30;1.37;;;0.97;;
3849;SDS011;1940;51.052;13.678;2023-03-14T09:46:41;1.70;;;0.80;;
3849;SDS011;1940;51.052;13.678;2023-03-14T09:49:13;1.17;;;0.80;;
3849;SDS011;1940;51.052;13.678;2023-03-14T09:51:47;1.23;;;0.80;;
3849;SDS011;1940;51.052;13.678;2023-03-14T09:54:24;2.87;;;1.10;;
3849;SDS011;1940;51.052;13.678;2023-03-14T09:56:56;1.00;;;0.80;;
3849;SDS011;1940;51.052;13.678;2023-03-14T09:59:21;2.90;;;1.00;;
3849;SDS011;1940;51.052;13.678;2023-03-14T10:01:47;2.03;;;1.10;;
3849;SDS011;1940;51.052;13.678;2023-03-14T10:04:14;2.80;;;1.47;;
3849;SDS011;1940;51.052;13.678;2023-03-14T10:06:42;2.20;;;1.50;;
3849;SDS011;1940;51.052;13.678;2023-03-14T10:09:11;1.60;;;0.87;;
3849;SDS011;1940;51.052;13.678;2023-03-14T10:11:57;1.63;;;1.20;;
3849;SDS011;1940;51.052;13.678;2023-03-14T10:14:30;1.67;;;0.97;;
3849;SDS011;1940;51.052;13.678;2023-03-14T10:17:04;2.37;;;0.90;;
3849;SDS011;1940;51.052;13.678;2023-03-14T10:19:35;7.13;;;1.50;;
3849;SDS011;1940;51.052;13.678;2023-03-14T10:22:02;1.77;;;1.20;;
3849;SDS011;1940;51.052;13.678;2023-03-14T10:24:33;2.50;;;1.17;;
3849;SDS011;1940;51.052;13.678;2023-03-14T10:27:10;1.20;;;0.80;;
3849;SDS011;1940;51.052;13.678;2023-03-14T10:29:52;1.30;;;0.97;;
3849;SDS011;1940;51.052;13.678;2023-03-14T10:32:27;2.47;;;0.90;;
3849;SDS011;1940;51.052;13.678;2023-03-14T10:35:19;1.23;;;0.70;;
3849;SDS011;1940;51.052;13.678;2023-03-14T10:37:48;1.90;;;1.20;;
3849;SDS011;1940;51.052;13.678;2023-03-14T10:40:31;1.87;;;1.20;;
3849;SDS011;1940;51.052;13.678;2023-03-14T10:43:04;2.60;;;1.13;;
3849;SDS011;1940;51.052;13.678;2023-03-14T10:45:36;2.53;;;1.10;;
3849;SDS011;1940;51.052;13.678;2023-03-14T10:48:22;1.30;;;1.10;;
3849;SDS011;1940;51.052;13.678;2023-03-14T10:50:55;3.70;;;1.70;;
3849;SDS011;1940;51.052;13.678;2023-03-14T10:53:22;2.80;;;1.20;;
3849;SDS011;1940;51.052;13.678;2023-03-14T10:55:49;2.57;;;1.00;;
3849;SDS011;1940;51.052;13.678;2023-03-14T10:58:22;2.60;;;1.50;;
3849;SDS011;1940;51.052;13.678;2023-03-14T11:00:53;2.20;;;1.10;;
3849;SDS011;1940;51.052;13.678;2023-03-14T11:03:27;2.30;;;0.90;;
3849;SDS011;1940;51.052;13.678;2023-03-14T11:05:57;1.30;;;1.00;;
3849;SDS011;1940;51.052;13.678;2023-03-14T11:08:31;2.53;;;1.10;;
3849;SDS011;1940;51.052;13.678;2023-03-14T11:11:18;2.57;;;1.40;;
3849;SDS011;1940;51.052;13.678;2023-03-14T11:13:55;2.73;;;0.90;;
3849;SDS011;1940;51.052;13.678;2023-03-14T11:16:37;1.40;;;0.90;;
3849;SDS011;1940;51.052;13.678;2023-03-14T11:19:20;1.47;;;0.90;;
3849;SDS011;1940;51.052;13.678;2023-03-14T11:28:03;2.07;;;1.00;;
3849;SDS011;1940;51.052;13.678;2023-03-14T11:36:11;0.80;;;0.80;;
3849;SDS011;1940;51.052;13.678;2023-03-14T11:38:58;1.10;;;0.80;;
3849;SDS011;1940;51.052;13.678;2023-03-14T11:41:29;2.30;;;1.00;;
3849;SDS011;1940;51.052;13.678;2023-03-14T11:43:59;1.50;;;1.00;;
3849;SDS011;1940;51.052;13.678;2023-03-14T11:46:42;3.70;;;0.90;;
3849;SDS011;1940;51.052;13.678;2023-03-14T11:49:13;1.00;;;0.90;;
3849;SDS011;1940;51.052;13.678;2023-03-14T11:51:40;2.10;;;1.00;;
3849;SDS011;1940;51.052;13.678;2023-03-14T11:54:14;2.93;;;0.90;;
3849;SDS011;1940;51.052;13.678;2023-03-14T11:56:48;1.00;;;0.80;;
3849;SDS011;1940;51.052;13.678;2023-03-14T11:59:21;2.13;;;1.03;;
3849;SDS011;1940;51.052;13.678;2023-03-14T12:01:56;2.67;;;1.00;;
3849;SDS011;1940;51.052;13.678;2023-03-14T12:04:39;2.30;;;1.00;;
3849;SDS011;1940;51.052;13.678;2023-03-14T12:07:29;3.00;;;1.00;;
3849;SDS011;1940;51.052;13.678;2023-03-14T12:10:04;1.80;;;0.70;;
3849;SDS011;1940;51.052;13.678;2023-03-14T12:12:29;1.43;;;0.83;;
3849;SDS011;1940;51.052;13.678;2023-03-14T12:15:00;1.27;;;0.80;;
3849;SDS011;1940;51.052;13.678;2023-03-14T12:17:37;6.80;;;0.90;;
3849;SDS011;1940;51.052;13.678;2023-03-14T12:22:43;1.33;;;0.80;;
3849;SDS011;1940;51.052;13.678;2023-03-14T12:27:49;1.10;;;0.90;;
3849;SDS011;1940;51.052;13.678;2023-03-14T12:30:37;4.50;;;1.47;;
3849;SDS011;1940;51.052;13.678;2023-03-14T12:35:35;2.83;;;0.93;;
3849;SDS011;1940;51.052;13.678;2023-03-14T12:38:03;1.33;;;0.80;;
3849;SDS011;1940;51.052;13.678;2023-03-14T12:40:35;1.33;;;0.70;;
3849;SDS011;1940;51.052;13.678;2023-03-14T12:43:23;0.80;;;0.60;;
3849;SDS011;1940;51.052;13.678;2023-03-14T12:49:07;1.53;;;0.80;;
3849;SDS011;1940;51.052;13.678;2023-03-14T12:51:40;3.13;;;0.70;;
3849;SDS011;1940;51.052;13.678;2023-03-14T12:54:12;1.67;;;0.60;;
3849;SDS011;1940;51.052;13.678;2023-03-14T12:59:54;2.33;;;0.70;;
3849;SDS011;1940;51.052;13.678;2023-03-14T13:02:26;1.27;;;0.70;;
3849;SDS011;1940;51.052;13.678;2023-03-14T13:05:04;1.00;;;0.80;;
3849;SDS011;1940;51.052;13.678;2023-03-14T13:08:01;1.83;;;0.70;;
3849;SDS011;1940;51.052;13.678;2023-03-14T13:10:28;1.47;;;0.70;;
3849;SDS011;1940;51.052;13.678;2023-03-14T13:13:02;0.70;;;0.50;;
3849;SDS011;1940;51.052;13.678;2023-03-14T13:15:44;1.03;;;0.60;;
3849;SDS011;1940;51.052;13.678;2023-03-14T13:18:11;1.10;;;0.60;;
3849;SDS011;1940;51.052;13.678;2023-03-14T13:20:46;1.53;;;0.70;;
3849;SDS011;1940;51.052;13.678;2023-03-14T13:23:35;0.90;;;0.60;;
3849;SDS011;1940;51.052;13.678;2023-03-14T13:26:02;4.43;;;0.60;;
3849;SDS011;1940;51.052;13.678;2023-03-14T13:28:30;0.80;;;0.60;;
3849;SDS011;1940;51.052;13.678;2023-03-14T13:31:02;6.93;;;0.70;;
3849;SDS011;1940;51.052;13.678;2023-03-14T13:33:30;1.10;;;0.70;;
3849;SDS011;1940;51.052;13.678;2023-03-14T13:35:56;1.93;;;0.70;;
3849;SDS011;1940;51.052;13.678;2023-03-14T13:38:25;0.80;;;0.60;;
3849;SDS011;1940;51.052;13.678;2023-03-14T13:40:53;0.80;;;0.70;;
3849;SDS011;1940;51.052;13.678;2023-03-14T13:43:36;2.00;;;0.70;;
3849;SDS011;1940;51.052;13.678;2023-03-14T13:46:07;0.90;;;0.63;;
3849;SDS011;1940;51.052;13.678;2023-03-14T13:48:53;1.10;;;0.70;;
3849;SDS011;1940;51.052;13.678;2023-03-14T13:51:20;0.87;;;0.63;;
3849;SDS011;1940;51.052;13.678;2023-03-14T13:53:50;0.77;;;0.70;;
3849;SDS011;1940;51.052;13.678;2023-03-14T13:56:19;1.60;;;0.77;;
3849;SDS011;1940;51.052;13.678;2023-03-14T13:58:49;2.90;;;0.70;;
3849;SDS011;1940;51.052;13.678;2023-03-14T14:01:16;0.90;;;0.70;;
3849;SDS011;1940;51.052;13.678;2023-03-14T14:03:45;1.00;;;0.60;;
3849;SDS011;1940;51.052;13.678;2023-03-14T14:06:22;1.17;;;0.63;;
3849;SDS011;1940;51.052;13.678;2023-03-14T14:08:54;1.30;;;0.80;;
3849;SDS011;1940;51.052;13.678;2023-03-14T14:11:22;0.70;;;0.70;;
3849;SDS011;1940;51.052;13.678;2023-03-14T14:14:10;0.80;;;0.60;;
3849;SDS011;1940;51.052;13.678;2023-03-14T14:16:41;1.10;;;0.73;;
3849;SDS011;1940;51.052;13.678;2023-03-14T14:19:10;0.80;;;0.77;;
3849;SDS011;1940;51.052;13.678;2023-03-14T14:21:37;1.27;;;0.80;;
3849;SDS011;1940;51.052;13.678;2023-03-14T14:24:03;1.10;;;0.90;;
3849;SDS011;1940;51.052;13.678;2023-03-14T14:26:29;0.70;;;0.70;;
3849;SDS011;1940;51.052;13.678;2023-03-14T14:29:03;0.70;;;0.70;;
3849;SDS011;1940;51.052;13.678;2023-03-14T14:31:30;0.70;;;0.60;;
3849;SDS011;1940;51.052;13.678;2023-03-14T14:33:56;2.13;;;0.83;;
3849;SDS011;1940;51.052;13.678;2023-03-14T14:36:29;1.73;;;0.73;;
3849;SDS011;1940;51.052;13.678;2023-03-14T14:38:59;0.70;;;0.70;;
3849;SDS011;1940;51.052;13.678;2023-03-14T14:41:45;0.87;;;0.70;;
3849;SDS011;1940;51.052;13.678;2023-03-14T14:44:16;0.70;;;0.60;;
3849;SDS011;1940;51.052;13.678;2023-03-14T14:46:45;0.90;;;0.70;;
3849;SDS011;1940;51.052;13.678;2023-03-14T14:49:16;3.57;;;0.90;;
3849;SDS011;1940;51.052;13.678;2023-03-14T14:51:44;0.90;;;0.77;;
3849;SDS011;1940;51.052;13.678;2023-03-14T14:54:32;0.83;;;0.70;;
3849;SDS011;1940;51.052;13.678;2023-03-14T14:57:04;1.57;;;1.00;;
3849;SDS011;1940;51.052;13.678;2023-03-14T14:59:30;0.80;;;0.63;;
3849;SDS011;1940;51.052;13.678;2023-03-14T15:01:59;0.80;;;0.60;;
3849;SDS011;1940;51.052;13.678;2023-03-14T15:04:26;0.80;;;0.70;;
3849;SDS011;1940;51.052;13.678;2023-03-14T15:06:55;1.00;;;0.70;;
3849;SDS011;1940;51.052;13.678;2023-03-14T15:09:20;1.00;;;0.70;;
3849;SDS011;1940;51.052;13.678;2023-03-14T15:11:46;2.33;;;0.80;;
3849;SDS011;1940;51.052;13.678;2023-03-14T15:14:13;2.63;;;0.73;;
3849;SDS011;1940;51.052;13.678;2023-03-14T15:16:38;1.10;;;0.67;;
3849;SDS011;1940;51.052;13.678;2023-03-14T15:19:21;2.60;;;0.70;;
3849;SDS011;1940;51.052;13.678;2023-03-14T15:21:51;1.57;;;0.70;;
3849;SDS011;1940;51.052;13.678;2023-03-14T15:24:18;0.80;;;0.77;;
3849;SDS011;1940;51.052;13.678;2023-03-14T15:26:43;1.57;;;0.80;;
3849;SDS011;1940;51.052;13.678;2023-03-14T15:29:09;0.80;;;0.70;;
3849;SDS011;1940;51.052;13.678;2023-03-14T15:31:37;1.63;;;0.70;;
3849;SDS011;1940;51.052;13.678;2023-03-14T15:34:03;0.93;;;0.83;;
3849;SDS011;1940;51.052;13.678;2023-03-14T15:36:29;1.40;;;0.77;;
3849;SDS011;1940;51.052;13.678;2023-03-14T15:38:57;1.00;;;0.80;;
3849;SDS011;1940;51.052;13.678;2023-03-14T15:41:23;0.90;;;0.80;;
3849;SDS011;1940;51.052;13.678;2023-03-14T15:43:49;1.00;;;0.63;;